Time;durP1;ratioP1;P1;durP2;ratioP2;P2;SDS_P1;SDS_P2;PMS_P1;PMS_P2;Temp;Humidity;BMP_temperature;BMP_pressure;BME280_temperature;BME280_humidity;BME280_pressure;Samples;Min_cycle;Max_cycle;Signal;HPM_P1;HPM_P2
2023/01/24 00:00:44;;;;;;;1999.90;999.90;;;;;;;1.40;100.00;99073.25;5091436;28;20024;-74
2023/01/24 00:03:12;;;;;;;1999.90;999.90;;;;;;;1.45;100.00;99076.97;5091783;28;20027;-74
2023/01/24 00:05:41;;;;;;;1999.90;999.90;;;;;;;1.32;100.00;99068.06;5091613;28;20073;-75
2023/01/24 00:08:07;;;;;;;1999.90;999.90;;;;;;;1.38;100.00;99064.56;5090364;28;20051;-75
2023/01/24 00:10:32;;;;;;;1999.90;999.90;;;;;;;1.36;100.00;99066.63;5091379;28;20036;-75
2023/01/24 00:12:58;;;;;;;1999.90;999.90;;;;;;;1.40;100.00;99065.19;5091865;28;20534;-75
2023/01/24 00:15:23;;;;;;;1999.90;999.90;;;;;;;1.43;100.00;99070.16;5091371;28;20107;-75
2023/01/24 00:17:49;;;;;;;1999.90;999.90;;;;;;;1.39;100.00;99075.13;5091832;28;20058;-75
2023/01/24 00:20:15;;;;;;;1999.90;999.90;;;;;;;1.36;100.00;99067.47;5091377;28;20055;-74
2023/01/24 00:22:40;;;;;;;1999.90;999.90;;;;;;;1.36;100.00;99058.53;5091317;28;20388;-75
2023/01/24 00:25:06;;;;;;;1999.90;999.90;;;;;;;1.39;100.00;99058.94;5091358;28;20077;-75
2023/01/24 00:27:34;;;;;;;1999.90;999.90;;;;;;;1.34;100.00;99057.94;5091322;28;20020;-74
2023/01/24 00:29:59;;;;;;;1999.90;999.90;;;;;;;1.28;100.00;99050.69;5090998;28;20032;-75
2023/01/24 00:32:24;;;;;;;1999.90;999.90;;;;;;;1.30;100.00;99051.28;5091556;28;20032;-75
2023/01/24 00:34:50;;;;;;;1999.90;999.90;;;;;;;1.40;100.00;99067.88;5091460;28;20086;-75
2023/01/24 00:37:15;;;;;;;1999.90;999.90;;;;;;;1.25;100.00;99051.94;5089795;28;20036;-75
2023/01/24 00:39:40;;;;;;;1999.90;999.90;;;;;;;1.35;100.00;99073.88;5089940;28;20403;-75
2023/01/24 00:42:06;;;;;;;1999.90;999.90;;;;;;;1.40;100.00;99078.66;5090937;28;20039;-74
2023/01/24 00:44:31;;;;;;;1999.90;999.90;;;;;;;1.42;100.00;99071.19;5091135;28;20055;-75
2023/01/24 00:46:56;;;;;;;1999.90;999.90;;;;;;;1.45;100.00;99086.94;5090641;28;20028;-75
2023/01/24 00:49:22;;;;;;;1999.90;999.90;;;;;;;1.43;100.00;99089.00;5090964;28;20032;-75
2023/01/24 00:51:47;;;;;;;1999.90;999.90;;;;;;;1.40;100.00;99089.44;5089352;28;20107;-75
2023/01/24 00:54:12;;;;;;;1999.90;999.90;;;;;;;1.51;100.00;99089.63;5089467;28;20039;-76
2023/01/24 00:56:37;;;;;;;1999.90;999.90;;;;;;;1.57;100.00;99093.34;5089398;28;20064;-76
2023/01/24 00:59:03;;;;;;;1999.90;999.90;;;;;;;1.58;100.00;99097.69;5090910;28;20556;-75
2023/01/24 01:01:28;;;;;;;1999.90;999.90;;;;;;;1.51;100.00;99099.56;5088734;28;20092;-74
2023/01/24 01:03:57;;;;;;;1999.90;999.90;;;;;;;1.43;100.00;99099.78;5106990;28;20177;-75
2023/01/24 01:06:24;;;;;;;1999.90;999.90;;;;;;;1.53;100.00;99111.81;5111589;28;20150;-74
2023/01/24 01:08:50;;;;;;;1999.90;999.90;;;;;;;1.47;100.00;99106.44;5110183;28;20028;-74
2023/01/24 01:11:16;;;;;;;1999.90;999.90;;;;;;;1.42;100.00;99117.00;5110100;28;20156;-75
2023/01/24 01:13:42;;;;;;;1999.90;999.90;;;;;;;1.59;100.00;99110.16;5111736;28;20434;-75
2023/01/24 01:16:10;;;;;;;1999.90;999.90;;;;;;;1.46;100.00;99105.59;5111305;28;20046;-75
2023/01/24 01:18:38;;;;;;;1999.90;999.90;;;;;;;1.58;100.00;99119.25;5111427;28;20035;-75
2023/01/24 01:21:05;;;;;;;1999.90;999.90;;;;;;;1.51;100.00;99118.44;5111655;28;20027;-74
2023/01/24 01:23:31;;;;;;;1999.90;999.90;;;;;;;1.62;100.00;99120.50;5111208;28;20177;-75
2023/01/24 01:26:01;;;;;;;1999.90;999.90;;;;;;;1.56;100.00;99119.50;5114041;28;20145;-75
2023/01/24 01:28:26;;;;;;;1999.90;999.90;;;;;;;1.50;100.00;99116.81;5115405;28;20026;-75
2023/01/24 01:30:53;;;;;;;1999.90;999.90;;;;;;;1.63;100.00;99112.19;5111783;28;20392;-74
2023/01/24 01:33:18;;;;;;;1999.90;999.90;;;;;;;1.50;100.00;99108.72;5111358;28;20031;-74
2023/01/24 01:35:43;;;;;;;1999.90;999.90;;;;;;;1.46;100.00;99100.22;5109611;28;20028;-75
2023/01/24 01:38:09;;;;;;;1999.90;999.90;;;;;;;1.42;100.00;99103.50;5111042;28;20532;-75
2023/01/24 01:40:34;;;;;;;1999.90;999.90;;;;;;;1.41;100.00;99109.97;5109880;28;20059;-75
2023/01/24 01:42:59;;;;;;;1999.90;999.90;;;;;;;1.39;100.00;99101.25;5110644;28;20024;-75
2023/01/24 01:45:39;;;;;;;1999.90;999.90;;;;;;;1.44;100.00;99106.84;5111487;28;20469;-75
2023/01/24 01:48:21;;;;;;;1999.90;999.90;;;;;;;1.49;100.00;99104.34;5111061;28;20499;-74
2023/01/24 01:50:52;;;;;;;1999.90;999.90;;;;;;;1.48;100.00;99102.69;5111052;28;20392;-74
2023/01/24 01:53:19;;;;;;;1999.90;999.90;;;;;;;1.55;100.00;99098.13;5111000;28;20026;-75
2023/01/24 01:55:49;;;;;;;1999.90;999.90;;;;;;;1.52;100.00;99098.53;5110099;28;20016;-76
2023/01/24 01:58:17;;;;;;;1999.90;999.90;;;;;;;1.57;100.00;99101.41;5111428;28;20020;-76
2023/01/24 02:00:49;;;;;;;1999.90;999.90;;;;;;;1.56;100.00;99110.56;5111397;28;20023;-75
2023/01/24 02:06:03;;;;;;;1999.90;999.90;;;;;;;1.46;100.00;99099.38;5110517;28;20080;-74
2023/01/24 02:08:29;;;;;;;1999.90;999.90;;;;;;;1.58;100.00;99105.78;5110707;28;20035;-76
2023/01/24 02:13:43;;;;;;;1999.90;999.90;;;;;;;1.58;100.00;99114.72;5115571;28;20050;-74
2023/01/24 02:16:10;;;;;;;1999.90;999.90;;;;;;;1.65;100.00;99109.31;5114682;28;20042;-75
2023/01/24 02:18:37;;;;;;;1999.90;999.90;;;;;;;1.60;100.00;99107.22;5101351;28;20040;-75
2023/01/24 02:21:07;;;;;;;1999.90;999.90;;;;;;;1.52;100.00;99087.75;5093181;28;20104;-76
2023/01/24 02:23:36;;;;;;;1999.90;999.90;;;;;;;1.59;100.00;99110.16;5111494;28;20099;-75
2023/01/24 02:26:11;;;;;;;1999.90;999.90;;;;;;;1.50;100.00;99104.13;5113541;28;20032;-76
2023/01/24 02:28:40;;;;;;;1999.90;999.90;;;;;;;1.53;100.00;99090.25;5114491;28;20130;-75
2023/01/24 02:31:05;;;;;;;1999.90;999.90;;;;;;;1.63;100.00;99087.09;5114322;28;20031;-76
2023/01/24 02:33:32;;;;;;;1999.90;999.90;;;;;;;1.60;100.00;99091.06;5114097;28;20027;-76
2023/01/24 02:36:21;;;;;;;1999.90;999.90;;;;;;;1.58;100.00;99093.16;5113032;28;20468;-75
2023/01/24 02:38:56;;;;;;;1999.90;999.90;;;;;;;1.52;100.00;99106.63;5114345;28;20020;-75
2023/01/24 02:41:28;;;;;;;1999.90;999.90;;;;;;;1.39;100.00;99082.38;5100240;28;20165;-75
2023/01/24 02:43:58;;;;;;;1999.90;999.90;;;;;;;1.48;100.00;99103.50;5114206;27;20057;-75
2023/01/24 02:46:23;;;;;;;1999.90;999.90;;;;;;;1.40;100.00;99101.03;5102076;28;20515;-75
2023/01/24 02:48:51;;;;;;;1999.90;999.90;;;;;;;1.34;100.00;99098.34;5093461;28;20028;-75
2023/01/24 02:54:00;;;;;;;1999.90;999.90;;;;;;;1.40;100.00;99095.66;5093336;28;20054;-74
2023/01/24 02:59:09;;;;;;;1999.90;999.90;;;;;;;1.38;100.00;99110.38;5110018;28;20031;-75
2023/01/24 03:01:34;;;;;;;1999.90;999.90;;;;;;;1.43;100.00;99107.88;5113592;28;20028;-75
2023/01/24 03:04:00;;;;;;;1999.90;999.90;;;;;;;1.34;100.00;99106.44;5113474;28;20424;-78
2023/01/24 03:06:25;;;;;;;1999.90;999.90;;;;;;;1.30;100.00;99080.94;5113176;28;20118;-75
2023/01/24 03:08:51;;;;;;;1999.90;999.90;;;;;;;1.38;100.00;99096.91;5112180;28;20523;-76
2023/01/24 03:11:16;;;;;;;1999.90;999.90;;;;;;;1.45;100.00;99103.09;5113347;28;20031;-75
2023/01/24 03:35:34;;;;;;;1999.90;999.90;;;;;;;1.37;100.00;99112.25;5114085;28;20344;-76
2023/01/24 03:40:43;;;;;;;1999.90;999.90;;;;;;;1.35;100.00;99108.91;5113551;28;20491;-75
2023/01/24 03:43:09;;;;;;;1999.90;999.90;;;;;;;1.32;100.00;99097.72;5112889;28;20019;-76
2023/01/24 03:45:36;;;;;;;1999.90;999.90;;;;;;;1.46;100.00;99107.47;5111907;28;20027;-77
2023/01/24 03:48:12;;;;;;;1999.90;999.90;;;;;;;1.41;100.00;99113.47;5112679;28;20032;-75
2023/01/24 03:53:27;;;;;;;1999.90;999.90;;;;;;;1.41;100.00;99116.16;5112704;28;20051;-75
2023/01/24 03:55:59;;;;;;;1999.90;999.90;;;;;;;1.29;100.00;99108.91;5112178;28;20108;-76
2023/01/24 03:58:25;;;;;;;1999.90;999.90;;;;;;;1.25;100.00;99118.47;5112391;28;20034;-76
2023/01/24 04:00:52;;;;;;;1999.90;999.90;;;;;;;1.28;100.00;99116.19;5110931;28;20101;-76
2023/01/24 04:03:18;;;;;;;1999.90;999.90;;;;;;;1.23;100.00;99120.50;5112203;28;20525;-76
2023/01/24 04:05:47;;;;;;;1999.90;999.90;;;;;;;1.30;100.00;99100.63;5104489;28;20124;-76
2023/01/24 04:08:12;;;;;;;1999.90;999.90;;;;;;;1.34;100.00;99103.75;5091578;28;20040;-76
2023/01/24 04:10:37;;;;;;;1999.90;999.90;;;;;;;1.37;100.00;99114.09;5091810;28;20492;-75
2023/01/24 04:13:03;;;;;;;1999.90;999.90;;;;;;;1.38;100.00;99119.28;5091793;28;20074;-74
2023/01/24 04:15:31;;;;;;;1999.90;999.90;;;;;;;1.40;100.00;99122.59;5092200;28;20059;-76
2023/01/24 04:17:58;;;;;;;1999.90;999.90;;;;;;;1.42;100.00;99125.91;5091839;28;20038;-76
2023/01/24 04:20:25;;;;;;;1999.90;999.90;;;;;;;1.37;100.00;99112.25;5090076;28;20032;-76
2023/01/24 04:22:51;;;;;;;1999.90;999.90;;;;;;;1.44;100.00;99121.13;5091586;28;20032;-75
2023/01/24 04:25:16;;;;;;;1999.90;999.90;;;;;;;1.43;100.00;99115.97;5090142;28;20027;-75
2023/01/24 04:27:42;;;;;;;1999.90;999.90;;;;;;;1.38;100.00;99126.56;5091018;28;20023;-76
2023/01/24 04:30:10;;;;;;;1999.90;999.90;;;;;;;1.25;100.00;99119.28;5091423;28;20069;-76
2023/01/24 04:32:36;;;;;;;1999.90;999.90;;;;;;;1.28;100.00;99126.97;5089727;28;20031;-75
2023/01/24 04:35:05;;;;;;;1999.90;999.90;;;;;;;1.32;100.00;99121.97;5102405;28;20038;-75
2023/01/24 04:37:31;;;;;;;1999.90;999.90;;;;;;;1.30;100.00;99121.34;5111746;27;20045;-76
2023/01/24 04:39:57;;;;;;;1999.90;999.90;;;;;;;1.26;100.00;99104.75;5110149;28;20031;-76
2023/01/24 04:42:22;;;;;;;1999.90;999.90;;;;;;;1.34;100.00;99119.91;5111900;28;20042;-76
2023/01/24 04:44:47;;;;;;;1999.90;999.90;;;;;;;1.30;100.00;99111.41;5111555;28;20120;-75
2023/01/24 04:47:13;;;;;;;1999.90;999.90;;;;;;;1.36;100.00;99125.91;5110498;28;20023;-75
2023/01/24 04:49:38;;;;;;;1999.90;999.90;;;;;;;1.35;100.00;99133.16;5110352;28;20114;-76
2023/01/24 04:52:04;;;;;;;1999.90;999.90;;;;;;;1.40;100.00;99127.16;5111533;28;20044;-75
2023/01/24 04:54:29;;;;;;;1999.90;999.90;;;;;;;1.31;100.00;99106.84;5111116;28;20042;-75
2023/01/24 04:56:55;;;;;;;1999.90;999.90;;;;;;;1.33;100.00;99127.16;5112350;28;20016;-75
2023/01/24 04:59:20;;;;;;;1999.90;999.90;;;;;;;1.34;100.00;99122.59;5112663;28;20476;-76
2023/01/24 05:01:45;;;;;;;1999.90;999.90;;;;;;;1.38;100.00;99140.03;5107937;28;20024;-76
2023/01/24 05:04:11;;;;;;;1999.90;999.90;;;;;;;1.43;100.00;99138.34;5098423;28;20030;-76
2023/01/24 05:06:36;;;;;;;1999.90;999.90;;;;;;;1.41;100.00;99145.81;5110977;28;20084;-75
2023/01/24 05:09:02;;;;;;;1999.90;999.90;;;;;;;1.35;100.00;99145.81;5097686;28;20059;-76
2023/01/24 05:11:27;;;;;;;1999.90;999.90;;;;;;;1.16;100.00;99123.19;5089238;28;20126;-75
2023/01/24 05:13:53;;;;;;;1999.90;999.90;;;;;;;1.37;100.00;99141.88;5089175;28;20077;-77
2023/01/24 05:16:19;;;;;;;1999.90;999.90;;;;;;;1.35;100.00;99156.56;5103253;28;20090;-76
2023/01/24 05:18:45;;;;;;;1999.90;999.90;;;;;;;1.27;100.00;99137.94;5110803;28;20102;-74
2023/01/24 05:21:14;;;;;;;1999.90;999.90;;;;;;;1.33;100.00;99150.59;5095572;28;20058;-76
2023/01/24 05:23:40;;;;;;;1999.90;999.90;;;;;;;1.34;100.00;99146.84;5090264;28;20034;-76
2023/01/24 05:26:05;;;;;;;1999.90;999.90;;;;;;;1.36;100.00;99152.84;5090474;28;20451;-75
2023/01/24 05:28:31;;;;;;;1999.90;999.90;;;;;;;1.38;100.00;99153.50;5089370;28;20106;-76
2023/01/24 05:31:01;;;;;;;1999.90;999.90;;;;;;;1.30;100.00;99154.53;5090412;28;20027;-76
2023/01/24 05:33:27;;;;;;;1999.90;999.90;;;;;;;1.23;100.00;99158.22;5090411;28;20032;-74
2023/01/24 05:36:03;;;;;;;1999.90;999.90;;;;;;;1.20;100.00;99158.66;5090320;28;20020;-76
2023/01/24 05:38:28;;;;;;;1999.90;999.90;;;;;;;1.14;100.00;99162.16;5090368;28;20040;-76
2023/01/24 05:40:59;;;;;;;1999.90;999.90;;;;;;;1.17;100.00;99172.53;5090618;28;20024;-77
2023/01/24 05:43:24;;;;;;;1999.90;999.90;;;;;;;1.15;100.00;99171.91;5090651;28;20031;-75
2023/01/24 05:45:50;;;;;;;1999.90;999.90;;;;;;;1.21;100.00;99181.88;5093423;28;20032;-76
2023/01/24 05:48:16;;;;;;;1999.90;999.90;;;;;;;1.14;100.00;99167.56;5096749;28;20022;-76
2023/01/24 05:50:41;;;;;;;1999.90;999.90;;;;;;;1.19;100.00;99186.66;5090523;28;20110;-76
2023/01/24 05:53:06;;;;;;;1999.90;999.90;;;;;;;1.19;100.00;99194.72;5090565;28;20477;-77
2023/01/24 05:55:32;;;;;;;1999.90;999.90;;;;;;;1.15;100.00;99186.22;5090600;28;20431;-76
2023/01/24 05:58:00;;;;;;;1999.90;999.90;;;;;;;1.22;100.00;99194.31;5090341;28;20026;-76
2023/01/24 06:00:25;;;;;;;1999.90;999.90;;;;;;;1.12;100.00;99186.63;5089803;28;20072;-76
2023/01/24 06:02:51;;;;;;;1999.90;999.90;;;;;;;1.11;100.00;99197.59;5088422;28;20020;-79
2023/01/24 06:05:16;;;;;;;1999.90;999.90;;;;;;;1.15;100.00;99196.16;5089541;28;20024;-76
2023/01/24 06:07:42;;;;;;;1999.90;999.90;;;;;;;1.10;100.00;99185.19;5100430;28;20500;-76
2023/01/24 06:10:08;;;;;;;1999.90;999.90;;;;;;;1.08;100.00;99191.59;5093967;28;20558;-75
2023/01/24 06:12:36;;;;;;;1999.90;999.90;;;;;;;1.08;100.00;99183.50;5105561;28;20036;-75
2023/01/24 06:15:01;;;;;;;1999.90;999.90;;;;;;;1.13;100.00;99200.94;5097935;28;20060;-76
2023/01/24 06:17:27;;;;;;;1999.90;999.90;;;;;;;1.11;100.00;99200.28;5094103;28;20106;-76
2023/01/24 06:19:52;;;;;;;1999.90;999.90;;;;;;;1.25;100.00;99208.22;5098780;28;20042;-75
2023/01/24 06:22:44;;;;;;;1999.90;999.90;;;;;;;1.30;100.00;99212.97;5100927;28;20086;-74
2023/01/24 06:25:22;;;;;;;1999.90;999.90;;;;;;;1.33;100.00;99212.56;5102525;28;20397;-74
2023/01/24 06:27:48;;;;;;;1999.90;999.90;;;;;;;1.30;100.00;99223.75;5110501;28;20050;-74
2023/01/24 06:30:14;;;;;;;1999.90;999.90;;;;;;;1.29;100.00;99217.53;5110600;28;20028;-75
2023/01/24 06:33:11;;;;;;;1999.90;999.90;;;;;;;1.33;100.00;99226.03;5110459;28;20024;-75
2023/01/24 06:35:50;;;;;;;;;;;;;;;1.33;100.00;99224.16;5110756;28;20526;-75
2023/01/24 06:38:21;;;;;;;1999.90;999.90;;;;;;;1.37;100.00;99230.00;5104351;28;19923;-74
2023/01/24 06:40:52;;;;;;;1999.90;999.90;;;;;;;1.39;100.00;99222.50;5102922;28;20490;-75
2023/01/24 06:43:18;;;;;;;1999.90;999.90;;;;;;;1.35;100.00;99221.25;5109547;28;20476;-75
2023/01/24 06:45:43;;;;;;;1999.90;999.90;;;;;;;1.40;100.00;99229.56;5105776;28;20055;-75
2023/01/24 06:48:08;;;;;;;1999.90;999.90;;;;;;;1.39;100.00;99231.44;5088071;28;20040;-84
2023/01/24 06:50:34;;;;;;;1999.90;999.90;;;;;;;1.40;100.00;99245.75;5091638;28;20035;-73
2023/01/24 06:52:59;;;;;;;1999.90;999.90;;;;;;;1.32;100.00;99252.16;5088185;28;20031;-75
2023/01/24 06:55:25;;;;;;;1999.90;999.90;;;;;;;1.29;100.00;99243.63;5089841;28;20028;-74
2023/01/24 06:57:57;;;;;;;1999.90;999.90;;;;;;;1.29;100.00;99246.34;5114579;28;20061;-75
2023/01/24 07:00:23;;;;;;;1999.90;999.90;;;;;;;1.29;100.00;99247.16;5112540;28;20024;-75
2023/01/24 07:02:55;;;;;;;1999.90;999.90;;;;;;;1.24;100.00;99238.03;5114029;28;20034;-75
2023/01/24 07:05:21;;;;;;;1999.90;999.90;;;;;;;1.34;100.00;99251.97;5113330;28;20027;-75
2023/01/24 07:07:46;;;;;;;1999.90;999.90;;;;;;;1.39;100.00;99268.34;5114313;28;20502;-76
2023/01/24 07:10:11;;;;;;;1999.90;999.90;;;;;;;1.29;100.00;99257.94;5114164;28;20044;-75
2023/01/24 07:12:37;;;;;;;1999.90;999.90;;;;;;;1.32;100.00;99270.19;5113403;28;20480;-76
2023/01/24 07:15:02;;;;;;;1999.90;999.90;;;;;;;1.32;100.00;99264.78;5112271;28;20012;-79
2023/01/24 07:17:28;;;;;;;1999.90;999.90;;;;;;;1.30;100.00;99259.63;5115357;28;20034;-82
2023/01/24 07:19:53;;;;;;;1999.90;999.90;;;;;;;1.43;100.00;99261.50;5114267;28;20023;-76
2023/01/24 07:22:19;;;;;;;1999.90;999.90;;;;;;;1.43;100.00;99262.34;5114492;28;20139;-82
2023/01/24 07:24:44;;;;;;;1999.90;999.90;;;;;;;1.49;100.00;99261.53;5113076;28;20034;-75
2023/01/24 07:27:10;;;;;;;1999.90;999.90;;;;;;;1.58;100.00;99267.53;5114625;28;20035;-75
2023/01/24 07:29:35;;;;;;;1999.90;999.90;;;;;;;1.63;100.00;99273.97;5112335;27;20023;-75
2023/01/24 07:32:00;;;;;;;1999.90;999.90;;;;;;;1.64;100.00;99272.13;5112592;28;20023;-76
2023/01/24 07:34:26;;;;;;;1999.90;999.90;;;;;;;1.65;100.00;99276.47;5112780;28;20040;-75
2023/01/24 07:36:51;;;;;;;1999.90;999.90;;;;;;;1.49;100.00;99266.09;5111060;28;20106;-75
2023/01/24 07:39:16;;;;;;;1999.90;999.90;;;;;;;1.56;100.00;99272.31;5111033;28;20066;-76
2023/01/24 07:41:43;;;;;;;1999.90;999.90;;;;;;;1.65;100.00;99273.78;5112945;28;20019;-76
2023/01/24 07:44:09;;;;;;;1999.90;999.90;;;;;;;1.67;100.00;99279.78;5113150;28;20411;-76
2023/01/24 07:46:35;;;;;;;1999.90;999.90;;;;;;;1.64;100.00;99282.91;5113942;28;20003;-74
2023/01/24 07:49:01;;;;;;;1999.90;999.90;;;;;;;1.56;100.00;99277.72;5112747;28;20121;-74
2023/01/24 07:51:27;;;;;;;1999.90;999.90;;;;;;;1.62;100.00;99290.38;5112395;28;20032;-75
2023/01/24 07:53:52;;;;;;;1999.90;999.90;;;;;;;1.63;100.00;99292.00;5113151;28;20481;-76
2023/01/24 07:56:18;;;;;;;1999.90;999.90;;;;;;;1.50;100.00;99267.75;5116926;28;20035;-77
2023/01/24 07:58:43;;;;;;;1999.90;999.90;;;;;;;1.65;100.00;99276.47;5112314;28;20114;-75
2023/01/24 08:01:09;;;;;;;1999.90;999.90;;;;;;;1.68;100.00;99286.84;5112176;28;20038;-74
2023/01/24 08:03:34;;;;;;;1999.90;999.90;;;;;;;1.69;100.00;99275.03;5111041;28;20053;-74
2023/01/24 08:06:00;;;;;;;1999.90;999.90;;;;;;;1.85;100.00;99277.31;5112060;28;20037;-75
2023/01/24 08:08:25;;;;;;;1999.90;999.90;;;;;;;1.97;100.00;99275.66;5110908;28;20059;-75
2023/01/24 08:10:51;;;;;;;1999.90;999.90;;;;;;;2.00;100.00;99280.66;5110495;28;20031;-75
2023/01/24 08:13:16;;;;;;;1999.90;999.90;;;;;;;2.10;100.00;99282.91;5112182;28;20020;-75
2023/01/24 08:15:41;;;;;;;1999.90;999.90;;;;;;;2.23;100.00;99284.78;5112576;28;20035;-74
2023/01/24 08:18:07;;;;;;;1999.90;999.90;;;;;;;2.26;100.00;99285.19;5111795;28;20023;-74
2023/01/24 08:20:32;;;;;;;1999.90;999.90;;;;;;;2.25;100.00;99286.25;5111727;28;20031;-75
2023/01/24 08:22:58;;;;;;;1999.90;999.90;;;;;;;2.17;100.00;99292.66;5111757;28;20019;-75
2023/01/24 08:25:25;;;;;;;1999.90;999.90;;;;;;;2.22;100.00;99299.31;5111910;28;20028;-75
2023/01/24 08:27:50;;;;;;;1999.90;999.90;;;;;;;2.25;100.00;99282.72;5111825;28;20027;-75
2023/01/24 08:30:15;;;;;;;1999.90;999.90;;;;;;;2.43;100.00;99297.22;5111724;28;20475;-76
2023/01/24 08:32:41;;;;;;;1999.90;999.90;;;;;;;2.44;100.00;99289.97;5111216;28;20494;-75
2023/01/24 08:35:07;;;;;;;1999.90;999.90;;;;;;;2.59;100.00;99299.47;5111930;28;20033;-76
2023/01/24 08:37:32;;;;;;;1999.90;999.90;;;;;;;2.68;100.00;99289.28;5096037;28;20016;-76
2023/01/24 08:39:58;;;;;;;1999.90;999.90;;;;;;;2.87;100.00;99301.91;5089943;28;20136;-75
2023/01/24 08:42:23;;;;;;;1999.90;999.90;;;;;;;2.87;100.00;99293.78;5091322;28;20028;-75
2023/01/24 08:44:49;;;;;;;1999.90;999.90;;;;;;;3.05;100.00;99307.44;5090957;28;20046;-76
2023/01/24 08:47:14;;;;;;;1999.90;999.90;;;;;;;3.14;100.00;99308.84;5091663;28;20028;-75
2023/01/24 08:49:40;;;;;;;1999.90;999.90;;;;;;;3.08;100.00;99312.41;5090481;28;20028;-75
2023/01/24 08:52:05;;;;;;;1999.90;999.90;;;;;;;3.09;100.00;99302.44;5090633;28;20040;-76
2023/01/24 08:54:38;;;;;;;1999.90;999.90;;;;;;;3.22;100.00;99308.63;5090780;28;20370;-76
2023/01/24 08:57:05;;;;;;;1999.90;999.90;;;;;;;3.25;100.00;99301.97;5090977;28;20012;-77
2023/01/24 08:59:30;;;;;;;1999.90;999.90;;;;;;;3.21;100.00;99311.53;5090728;28;20035;-76
2023/01/24 09:01:56;;;;;;;1999.90;999.90;;;;;;;3.25;100.00;99312.78;5098065;28;20012;-75
2023/01/24 09:04:21;;;;;;;1999.90;999.90;;;;;;;3.21;100.00;99308.84;5111248;28;20043;-76
2023/01/24 09:06:47;;;;;;;1999.90;999.90;;;;;;;3.19;100.00;99324.44;5110558;28;20142;-76
2023/01/24 09:09:12;;;;;;;1999.90;999.90;;;;;;;3.19;100.00;99314.47;5108992;28;20019;-76
2023/01/24 09:11:38;;;;;;;1999.90;999.90;;;;;;;3.19;100.00;99314.47;5110706;28;20136;-75
2023/01/24 09:14:03;;;;;;;1999.90;999.90;;;;;;;3.10;100.00;99318.44;5110714;28;20447;-75
2023/01/24 09:16:28;;;;;;;1999.90;999.90;;;;;;;3.21;100.00;99320.47;5109644;28;20027;-76
2023/01/24 09:18:54;;;;;;;1999.90;999.90;;;;;;;3.15;100.00;99313.22;5111013;28;20503;-76
2023/01/24 09:21:20;;;;;;;1999.90;999.90;;;;;;;3.30;100.00;99325.63;5110911;28;20031;-77
2023/01/24 09:23:46;;;;;;;1999.90;999.90;;;;;;;3.49;100.00;99332.81;5110735;28;20036;-74
2023/01/24 09:26:11;;;;;;;1999.90;999.90;;;;;;;3.43;100.00;99337.22;5109704;28;20031;-75
2023/01/24 09:28:37;;;;;;;1999.90;999.90;;;;;;;3.38;100.00;99333.50;5109187;28;20400;-77
2023/01/24 09:31:03;;;;;;;1999.90;999.90;;;;;;;3.52;100.00;99335.94;5110662;28;20028;-77
2023/01/24 09:33:28;;;;;;;1999.90;999.90;;;;;;;3.59;100.00;99338.59;5110654;28;20050;-76
2023/01/24 09:35:59;;;;;;;1999.90;999.90;;;;;;;3.61;100.00;99341.91;5110373;28;20028;-75
2023/01/24 09:38:27;;;;;;;1999.90;999.90;;;;;;;3.51;100.00;99344.28;5110709;28;20035;-76
2023/01/24 09:41:11;;;;;;;1999.90;999.90;;;;;;;3.58;100.00;99336.94;5110712;28;20106;-76
2023/01/24 09:43:59;;;;;;;1999.90;999.90;;;;;;;3.64;100.00;99345.03;5110696;28;20032;-75
2023/01/24 09:46:48;;;;;;;1999.90;999.90;;;;;;;3.64;100.00;99334.19;5111402;28;20555;-76
2023/01/24 09:49:43;;;;;;;1999.90;999.90;;;;;;;3.77;100.00;99344.13;5110788;28;20114;-75
2023/01/24 09:52:20;;;;;;;1999.90;999.90;;;;;;;3.89;100.00;99342.38;5021476;28;20064;-76
2023/01/24 09:54:58;;;;;;;1999.90;999.90;;;;;;;3.86;100.00;99342.81;5110651;28;20032;-76
2023/01/24 09:57:49;;;;;;;1999.90;999.90;;;;;;;3.74;100.00;99339.13;5110344;28;20042;-76
2023/01/24 10:00:35;;;;;;;1999.90;999.90;;;;;;;3.72;100.00;99335.84;5109372;28;20569;-76
2023/01/24 10:03:01;;;;;;;1999.90;999.90;;;;;;;3.74;100.00;99334.56;5111473;28;20122;-76
2023/01/24 10:05:36;;;;;;;1999.90;999.90;;;;;;;3.86;100.00;99341.97;5114599;28;20035;-76
2023/01/24 10:08:20;;;;;;;1999.90;999.90;;;;;;;3.91;100.00;99339.47;5111682;28;20035;-75
2023/01/24 10:10:56;;;;;;;1999.90;999.90;;;;;;;4.01;100.00;99329.00;5108908;28;20086;-76
2023/01/24 10:13:50;;;;;;;1999.90;999.90;;;;;;;3.92;100.00;99323.00;5109191;28;20059;-77
2023/01/24 10:16:34;;;;;;;1999.90;999.90;;;;;;;3.88;100.00;99329.91;5071809;28;20043;-76
2023/01/24 10:19:06;;;;;;;1999.90;999.90;;;;;;;3.88;100.00;99343.44;5109164;28;20027;-77
2023/01/24 10:22:06;;;;;;;1999.90;999.90;;;;;;;3.79;100.00;99340.13;5108970;28;20115;-74
2023/01/24 10:24:36;;;;;;;1999.90;999.90;;;;;;;3.82;100.00;99335.34;5108898;28;20072;-74
2023/01/24 10:27:16;;;;;;;1999.90;999.90;;;;;;;3.91;100.00;99343.00;5110044;28;20112;-76
2023/01/24 10:29:43;;;;;;;1999.90;999.90;;;;;;;3.78;100.00;99334.97;5108813;28;20479;-79
2023/01/24 10:32:16;;;;;;;1999.90;999.90;;;;;;;3.83;100.00;99331.59;5113440;28;20020;-77
2023/01/24 10:34:44;;;;;;;1999.90;999.90;;;;;;;4.10;100.00;99331.19;5113841;28;20122;-77
2023/01/24 10:37:09;;;;;;;1999.90;999.90;;;;;;;4.18;100.00;99330.09;5112441;28;20031;-76
2023/01/24 10:39:36;;;;;;;1999.90;999.90;;;;;;;4.23;100.00;99341.91;5112714;28;20494;-73
2023/01/24 10:42:14;;;;;;;1999.90;999.90;;;;;;;4.12;100.00;99325.56;5112924;28;20024;-74
2023/01/24 10:44:40;;;;;;;1999.90;999.90;;;;;;;4.15;100.00;99325.13;5113648;28;20540;-76
2023/01/24 10:47:22;;;;;;;1999.90;999.90;;;;;;;4.37;100.00;99333.69;5113178;28;20027;-76
2023/01/24 10:49:58;;;;;;;1999.90;999.90;;;;;;;4.52;100.00;99320.63;5112397;28;20024;-76
2023/01/24 10:52:24;;;;;;;1999.90;999.90;;;;;;;4.53;100.00;99322.28;5113739;27;20032;-77
2023/01/24 10:54:56;;;;;;;1999.90;999.90;;;;;;;4.39;100.00;99321.56;5113979;28;20042;-75
2023/01/24 10:57:24;;;;;;;1999.90;999.90;;;;;;;4.38;100.00;99319.09;5112558;28;20024;-75
2023/01/24 10:59:51;;;;;;;1999.90;999.90;;;;;;;4.26;100.00;99317.09;5112413;28;20024;-76
2023/01/24 11:02:23;;;;;;;1999.90;999.90;;;;;;;4.41;100.00;99313.25;5113642;28;20026;-76
2023/01/24 11:04:59;;;;;;;1999.90;999.90;;;;;;;4.48;100.00;99319.44;5113424;28;20027;-80
2023/01/24 11:07:40;;;;;;;1999.90;999.90;;;;;;;4.61;100.00;99300.31;5111936;28;20556;-76
2023/01/24 11:10:19;;;;;;;1999.90;999.90;;;;;;;4.32;100.00;99299.97;5113251;27;20030;-75
2023/01/24 11:12:54;;;;;;;1999.90;999.90;;;;;;;4.49;100.00;99293.97;5113588;28;20127;-76
2023/01/24 11:15:28;;;;;;;1999.90;999.90;;;;;;;4.75;100.00;99293.72;5113279;28;20032;-76
2023/01/24 11:17:57;;;;;;;1999.90;999.90;;;;;;;4.77;100.00;99292.44;5113735;28;20567;-76
2023/01/24 11:20:28;;;;;;;1999.90;999.90;;;;;;;4.73;100.00;99290.44;5113411;28;20081;-75
2023/01/24 11:23:14;;;;;;;1999.90;999.90;;;;;;;4.77;100.00;99286.19;5112988;28;20023;-74
2023/01/24 11:25:53;;;;;;;1999.90;999.90;;;;;;;4.84;100.00;99289.66;5112993;28;20085;-75
2023/01/24 11:28:25;;;;;;;1999.90;999.90;;;;;;;4.80;100.00;99285.75;5113170;28;20066;-76
2023/01/24 11:30:50;;;;;;;1999.90;999.90;;;;;;;4.52;100.00;99282.69;5111307;28;20027;-76
2023/01/24 11:33:42;;;;;;;1999.90;999.90;;;;;;;4.37;100.00;99284.94;5112593;28;20039;-76
2023/01/24 11:36:25;;;;;;;1999.90;999.90;;;;;;;4.31;100.00;99282.06;5112918;28;20042;-75
2023/01/24 11:38:53;;;;;;;1999.90;999.90;;;;;;;4.26;100.00;99278.38;5111102;28;20044;-75